sensor_id;sensor_type;location;lat;lon;timestamp;pressure;altitude;pressure_sealevel;temperature;humidity
81480;BME280;70893;52.500;5.456;2023-07-09T00:01:58;101917.13;;;21.25;74.23
81480;BME280;70893;52.500;5.456;2023-07-09T00:04:24;101913.56;;;21.24;73.14
81480;BME280;70893;52.500;5.456;2023-07-09T00:06:49;101907.97;;;21.29;75.00
81480;BME280;70893;52.500;5.456;2023-07-09T00:09:17;101911.97;;;21.23;72.51
81480;BME280;70893;52.500;5.456;2023-07-09T00:11:44;101918.41;;;21.05;73.45
81480;BME280;70893;52.500;5.456;2023-07-09T00:14:11;101907.47;;;20.91;75.30
81480;BME280;70893;52.500;5.456;2023-07-09T00:16:38;101904.56;;;20.87;74.49
81480;BME280;70893;52.500;5.456;2023-07-09T00:19:04;101914.81;;;20.82;74.92
81480;BME280;70893;52.500;5.456;2023-07-09T00:21:30;101903.59;;;20.69;75.03
81480;BME280;70893;52.500;5.456;2023-07-09T00:24:00;101898.84;;;20.61;75.65
81480;BME280;70893;52.500;5.456;2023-07-09T00:26:30;101901.69;;;20.56;75.96
81480;BME280;70893;52.500;5.456;2023-07-09T00:28:56;101906.91;;;20.52;75.59
81480;BME280;70893;52.500;5.456;2023-07-09T00:31:21;101912.38;;;20.52;76.05
81480;BME280;70893;52.500;5.456;2023-07-09T00:33:48;101907.25;;;20.51;75.84
81480;BME280;70893;52.500;5.456;2023-07-09T00:36:26;101917.97;;;20.47;75.93
81480;BME280;70893;52.500;5.456;2023-07-09T00:38:51;101912.31;;;20.44;76.47
81480;BME280;70893;52.500;5.456;2023-07-09T00:41:19;101907.03;;;20.47;77.50
81480;BME280;70893;52.500;5.456;2023-07-09T00:43:47;101910.38;;;20.44;74.91
81480;BME280;70893;52.500;5.456;2023-07-09T00:48:45;101916.75;;;20.40;75.46
81480;BME280;70893;52.500;5.456;2023-07-09T00:51:14;101928.31;;;20.37;75.97
81480;BME280;70893;52.500;5.456;2023-07-09T00:53:40;101927.78;;;20.34;76.04
81480;BME280;70893;52.500;5.456;2023-07-09T00:56:13;101927.59;;;20.31;77.46
81480;BME280;70893;52.500;5.456;2023-07-09T00:58:45;101927.28;;;20.32;77.87
81480;BME280;70893;52.500;5.456;2023-07-09T01:01:17;101926.28;;;20.28;78.35
81480;BME280;70893;52.500;5.456;2023-07-09T01:03:46;101925.53;;;20.23;75.48
81480;BME280;70893;52.500;5.456;2023-07-09T01:06:13;101927.78;;;20.21;74.95
81480;BME280;70893;52.500;5.456;2023-07-09T01:08:40;101926.97;;;20.20;75.46
81480;BME280;70893;52.500;5.456;2023-07-09T01:11:16;101926.78;;;20.17;75.91
81480;BME280;70893;52.500;5.456;2023-07-09T01:13:49;101926.78;;;20.17;75.84
81480;BME280;70893;52.500;5.456;2023-07-09T01:16:17;101923.31;;;20.11;77.54
81480;BME280;70893;52.500;5.456;2023-07-09T01:18:43;101925.25;;;20.10;76.03
81480;BME280;70893;52.500;5.456;2023-07-09T01:21:09;101918.94;;;20.10;75.77
81480;BME280;70893;52.500;5.456;2023-07-09T01:23:41;101922.63;;;20.05;76.20
81480;BME280;70893;52.500;5.456;2023-07-09T01:26:10;101915.84;;;20.03;76.42
81480;BME280;70893;52.500;5.456;2023-07-09T01:28:36;101920.78;;;20.01;75.63
81480;BME280;70893;52.500;5.456;2023-07-09T01:31:03;101920.78;;;20.01;76.11
81480;BME280;70893;52.500;5.456;2023-07-09T01:33:30;101914.28;;;19.97;77.31
81480;BME280;70893;52.500;5.456;2023-07-09T01:35:55;101911.56;;;19.97;75.94
81480;BME280;70893;52.500;5.456;2023-07-09T01:38:28;101919.25;;;19.95;75.88
81480;BME280;70893;52.500;5.456;2023-07-09T01:40:57;101915.28;;;19.87;77.13
81480;BME280;70893;52.500;5.456;2023-07-09T01:43:23;101920.53;;;19.83;77.21
81480;BME280;70893;52.500;5.456;2023-07-09T01:45:50;101922.47;;;19.83;77.31
81480;BME280;70893;52.500;5.456;2023-07-09T01:48:17;101923.88;;;19.80;78.07
81480;BME280;70893;52.500;5.456;2023-07-09T01:50:46;101925.28;;;19.78;77.67
81480;BME280;70893;52.500;5.456;2023-07-09T01:53:13;101929.91;;;19.77;77.97
81480;BME280;70893;52.500;5.456;2023-07-09T01:55:40;101929.91;;;19.77;78.29
81480;BME280;70893;52.500;5.456;2023-07-09T01:58:05;101938.44;;;19.76;78.61
81480;BME280;70893;52.500;5.456;2023-07-09T02:00:33;101937.13;;;19.73;78.41
81480;BME280;70893;52.500;5.456;2023-07-09T02:03:00;101940.66;;;19.74;79.11
81480;BME280;70893;52.500;5.456;2023-07-09T02:05:27;101936.31;;;19.73;79.45
81480;BME280;70893;52.500;5.456;2023-07-09T02:07:52;101942.88;;;19.72;78.22
81480;BME280;70893;52.500;5.456;2023-07-09T02:10:18;101942.34;;;19.69;78.56
81480;BME280;70893;52.500;5.456;2023-07-09T02:12:44;101949.22;;;19.67;78.45
81480;BME280;70893;52.500;5.456;2023-07-09T02:15:10;101941.31;;;19.65;78.63
81480;BME280;70893;52.500;5.456;2023-07-09T02:17:35;101935.84;;;19.65;77.54
81480;BME280;70893;52.500;5.456;2023-07-09T02:20:01;101943.22;;;19.65;78.89
81480;BME280;70893;52.500;5.456;2023-07-09T02:22:26;101936.66;;;19.66;78.35
81480;BME280;70893;52.500;5.456;2023-07-09T02:24:52;101932.81;;;19.67;78.15
81480;BME280;70893;52.500;5.456;2023-07-09T02:27:19;101930.63;;;19.69;79.65
81480;BME280;70893;52.500;5.456;2023-07-09T02:29:45;101937.78;;;19.65;77.50
81480;BME280;70893;52.500;5.456;2023-07-09T02:32:17;101931.66;;;19.73;77.78
81480;BME280;70893;52.500;5.456;2023-07-09T02:34:43;101936.88;;;19.69;78.14
81480;BME280;70893;52.500;5.456;2023-07-09T02:37:08;101939.13;;;19.67;77.26
81480;BME280;70893;52.500;5.456;2023-07-09T02:39:34;101927.41;;;19.62;77.91
81480;BME280;70893;52.500;5.456;2023-07-09T02:41:59;101938.34;;;19.62;77.65
81480;BME280;70893;52.500;5.456;2023-07-09T02:44:24;101930.16;;;19.62;76.98
81480;BME280;70893;52.500;5.456;2023-07-09T02:46:50;101929.16;;;19.58;78.94
81480;BME280;70893;52.500;5.456;2023-07-09T02:49:15;101931.28;;;19.61;77.23
81480;BME280;70893;52.500;5.456;2023-07-09T02:51:41;101938.13;;;19.58;77.13
81480;BME280;70893;52.500;5.456;2023-07-09T02:54:07;101949.66;;;19.55;77.82
81480;BME280;70893;52.500;5.456;2023-07-09T02:56:33;101946.94;;;19.55;78.20
81480;BME280;70893;52.500;5.456;2023-07-09T02:58:58;101944.19;;;19.55;78.22
81480;BME280;70893;52.500;5.456;2023-07-09T03:01:24;101943.41;;;19.55;78.58
81480;BME280;70893;52.500;5.456;2023-07-09T03:03:55;101942.06;;;19.71;75.95
81480;BME280;70893;52.500;5.456;2023-07-09T03:06:23;101937.22;;;19.82;79.70
81480;BME280;70893;52.500;5.456;2023-07-09T03:08:49;101935.13;;;19.92;76.67
81480;BME280;70893;52.500;5.456;2023-07-09T03:11:16;101940.47;;;19.84;76.82
81480;BME280;70893;52.500;5.456;2023-07-09T03:13:42;101937.13;;;19.87;75.98
81480;BME280;70893;52.500;5.456;2023-07-09T03:16:07;101937.13;;;19.87;76.74
81480;BME280;70893;52.500;5.456;2023-07-09T03:18:33;101935.69;;;19.76;77.23
81480;BME280;70893;52.500;5.456;2023-07-09T03:20:58;101928.09;;;19.73;80.39
81480;BME280;70893;52.500;5.456;2023-07-09T03:23:24;101926.00;;;19.64;77.93
81480;BME280;70893;52.500;5.456;2023-07-09T03:25:49;101931.88;;;19.58;78.27
81480;BME280;70893;52.500;5.456;2023-07-09T03:28:15;101930.84;;;19.54;78.43
81480;BME280;70893;52.500;5.456;2023-07-09T03:30:42;101937.19;;;19.49;78.73
81480;BME280;70893;52.500;5.456;2023-07-09T03:33:08;101926.56;;;19.47;78.87
81480;BME280;70893;52.500;5.456;2023-07-09T03:35:34;101930.41;;;19.46;79.16
81480;BME280;70893;52.500;5.456;2023-07-09T03:38:00;101928.78;;;19.45;78.74
81480;BME280;70893;52.500;5.456;2023-07-09T03:40:25;101933.44;;;19.45;79.14
81480;BME280;70893;52.500;5.456;2023-07-09T03:42:51;101935.66;;;19.43;79.34
81480;BME280;70893;52.500;5.456;2023-07-09T03:45:16;101940.81;;;19.44;79.38
81480;BME280;70893;52.500;5.456;2023-07-09T03:47:41;101942.22;;;19.42;78.74
81480;BME280;70893;52.500;5.456;2023-07-09T03:50:08;101939.63;;;19.51;78.06
81480;BME280;70893;52.500;5.456;2023-07-09T03:52:35;101948.63;;;19.51;78.24
81480;BME280;70893;52.500;5.456;2023-07-09T03:55:01;101948.09;;;19.49;78.44
81480;BME280;70893;52.500;5.456;2023-07-09T03:57:29;101946.69;;;19.52;78.08
81480;BME280;70893;52.500;5.456;2023-07-09T03:59:55;101952.59;;;19.59;78.08
81480;BME280;70893;52.500;5.456;2023-07-09T04:02:20;101954.31;;;19.55;78.22
81480;BME280;70893;52.500;5.456;2023-07-09T04:04:46;101954.59;;;19.53;78.61
81480;BME280;70893;52.500;5.456;2023-07-09T04:07:11;101947.66;;;19.61;80.87
81480;BME280;70893;52.500;5.456;2023-07-09T04:09:37;101951.59;;;19.55;78.65
81480;BME280;70893;52.500;5.456;2023-07-09T04:12:02;101955.78;;;19.66;76.45
81480;BME280;70893;52.500;5.456;2023-07-09T04:14:28;101949.34;;;19.76;77.56
81480;BME280;70893;52.500;5.456;2023-07-09T04:16:54;101946.72;;;19.70;78.30
81480;BME280;70893;52.500;5.456;2023-07-09T04:19:19;101949.72;;;19.69;78.10
81480;BME280;70893;52.500;5.456;2023-07-09T04:21:45;101953.03;;;19.66;77.89
81480;BME280;70893;52.500;5.456;2023-07-09T04:24:10;101961.22;;;19.66;79.01
81480;BME280;70893;52.500;5.456;2023-07-09T04:26:36;101958.50;;;19.66;78.59
81480;BME280;70893;52.500;5.456;2023-07-09T04:29:04;101957.94;;;19.69;78.82
81480;BME280;70893;52.500;5.456;2023-07-09T04:31:30;101960.91;;;19.73;80.84
81480;BME280;70893;52.500;5.456;2023-07-09T04:33:55;101957.56;;;19.76;78.60
81480;BME280;70893;52.500;5.456;2023-07-09T04:36:21;101962.13;;;19.80;78.25
81480;BME280;70893;52.500;5.456;2023-07-09T04:38:46;101963.13;;;19.84;78.67
81480;BME280;70893;52.500;5.456;2023-07-09T04:41:12;101965.50;;;19.91;78.47
81480;BME280;70893;52.500;5.456;2023-07-09T04:43:37;101965.69;;;19.95;78.46
81480;BME280;70893;52.500;5.456;2023-07-09T04:46:02;101967.53;;;19.99;77.85
81480;BME280;70893;52.500;5.456;2023-07-09T04:48:28;101970.69;;;20.06;78.14
81480;BME280;70893;52.500;5.456;2023-07-09T04:50:53;101967.88;;;20.11;77.69
81480;BME280;70893;52.500;5.456;2023-07-09T04:53:19;101977.81;;;20.21;78.53
81480;BME280;70893;52.500;5.456;2023-07-09T04:55:44;101975.50;;;20.28;76.91
81480;BME280;70893;52.500;5.456;2023-07-09T04:58:09;101976.41;;;20.38;76.81
81480;BME280;70893;52.500;5.456;2023-07-09T05:00:35;101966.38;;;20.47;78.14
81480;BME280;70893;52.500;5.456;2023-07-09T05:03:00;101971.16;;;20.55;77.97
81480;BME280;70893;52.500;5.456;2023-07-09T05:05:25;101973.69;;;20.65;77.38
81480;BME280;70893;52.500;5.456;2023-07-09T05:07:51;101969.94;;;20.75;77.67
81480;BME280;70893;52.500;5.456;2023-07-09T05:10:16;101977.94;;;20.85;77.14
81480;BME280;70893;52.500;5.456;2023-07-09T05:12:49;101973.16;;;20.91;77.05
81480;BME280;70893;52.500;5.456;2023-07-09T05:15:16;101966.78;;;20.95;77.50
81480;BME280;70893;52.500;5.456;2023-07-09T05:17:41;101962.00;;;21.01;77.22
81480;BME280;70893;52.500;5.456;2023-07-09T05:20:07;101964.34;;;21.08;78.84
81480;BME280;70893;52.500;5.456;2023-07-09T05:22:33;101965.03;;;21.13;78.00
81480;BME280;70893;52.500;5.456;2023-07-09T05:24:58;101961.75;;;21.25;72.80
81480;BME280;70893;52.500;5.456;2023-07-09T05:27:24;101965.19;;;21.31;76.43
81480;BME280;70893;52.500;5.456;2023-07-09T05:29:49;101969.03;;;21.30;76.36
81480;BME280;70893;52.500;5.456;2023-07-09T05:32:15;101973.09;;;21.32;77.13
81480;BME280;70893;52.500;5.456;2023-07-09T05:34:40;101971.16;;;21.33;76.09
81480;BME280;70893;52.500;5.456;2023-07-09T05:37:05;101972.97;;;21.37;75.23
81480;BME280;70893;52.500;5.456;2023-07-09T05:39:31;101973.69;;;21.43;75.73
81480;BME280;70893;52.500;5.456;2023-07-09T05:41:56;101977.13;;;21.49;76.51
81480;BME280;70893;52.500;5.456;2023-07-09T05:44:21;101982.84;;;21.61;76.01
81480;BME280;70893;52.500;5.456;2023-07-09T05:46:47;101969.19;;;21.70;75.98
81480;BME280;70893;52.500;5.456;2023-07-09T05:49:12;101978.69;;;21.86;73.03
81480;BME280;70893;52.500;5.456;2023-07-09T05:51:37;101983.22;;;21.91;73.78
81480;BME280;70893;52.500;5.456;2023-07-09T05:54:03;101980.38;;;22.04;71.19
81480;BME280;70893;52.500;5.456;2023-07-09T05:56:28;101986.91;;;22.17;73.18
81480;BME280;70893;52.500;5.456;2023-07-09T05:58:54;101987.31;;;22.24;72.75
81480;BME280;70893;52.500;5.456;2023-07-09T06:01:19;101994.63;;;22.38;71.58
81480;BME280;70893;52.500;5.456;2023-07-09T06:03:45;101994.53;;;22.52;70.84
81480;BME280;70893;52.500;5.456;2023-07-09T06:06:11;101992.50;;;22.75;69.19
81480;BME280;70893;52.500;5.456;2023-07-09T06:08:38;101986.94;;;22.97;66.60
81480;BME280;70893;52.500;5.456;2023-07-09T06:11:03;101991.97;;;23.12;67.81
81480;BME280;70893;52.500;5.456;2023-07-09T06:13:30;101988.72;;;23.19;67.08
81480;BME280;70893;52.500;5.456;2023-07-09T06:15:57;101987.59;;;23.29;65.19
81480;BME280;70893;52.500;5.456;2023-07-09T06:18:23;101983.91;;;23.33;65.03
81480;BME280;70893;52.500;5.456;2023-07-09T06:20:52;101989.22;;;23.56;65.55
81480;BME280;70893;52.500;5.456;2023-07-09T06:23:18;101991.19;;;23.73;66.16
81480;BME280;70893;52.500;5.456;2023-07-09T06:25:45;101983.25;;;23.89;68.95
81480;BME280;70893;52.500;5.456;2023-07-09T06:28:18;101979.91;;;24.13;64.52
81480;BME280;70893;52.500;5.456;2023-07-09T06:30:45;101985.19;;;24.35;62.18
81480;BME280;70893;52.500;5.456;2023-07-09T06:33:11;101989.66;;;24.57;61.60
81480;BME280;70893;52.500;5.456;2023-07-09T06:35:37;101995.56;;;24.77;65.95
81480;BME280;70893;52.500;5.456;2023-07-09T06:38:03;101995.34;;;25.54;58.99
81480;BME280;70893;52.500;5.456;2023-07-09T06:40:29;102000.63;;;26.25;57.03
81480;BME280;70893;52.500;5.456;2023-07-09T06:42:54;101992.88;;;26.64;54.74
81480;BME280;70893;52.500;5.456;2023-07-09T06:45:20;102003.22;;;26.79;57.84
81480;BME280;70893;52.500;5.456;2023-07-09T06:47:46;101995.34;;;27.06;58.41
81480;BME280;70893;52.500;5.456;2023-07-09T06:50:12;101997.41;;;27.09;57.15
81480;BME280;70893;52.500;5.456;2023-07-09T06:52:37;102005.97;;;27.44;55.81
81480;BME280;70893;52.500;5.456;2023-07-09T06:55:03;102008.34;;;27.30;55.35
81480;BME280;70893;52.500;5.456;2023-07-09T06:57:28;102003.84;;;27.13;56.72
81480;BME280;70893;52.500;5.456;2023-07-09T06:59:53;102005.19;;;28.16;53.91
81480;BME280;70893;52.500;5.456;2023-07-09T07:02:19;102001.09;;;28.58;48.21
81480;BME280;70893;52.500;5.456;2023-07-09T07:04:45;102006.31;;;28.15;49.54
81480;BME280;70893;52.500;5.456;2023-07-09T07:07:10;102008.47;;;28.06;48.41
81480;BME280;70893;52.500;5.456;2023-07-09T07:09:35;102009.69;;;28.88;48.68
81480;BME280;70893;52.500;5.456;2023-07-09T07:12:01;102019.53;;;28.85;48.31
81480;BME280;70893;52.500;5.456;2023-07-09T07:14:26;102035.06;;;27.95;49.67
81480;BME280;70893;52.500;5.456;2023-07-09T07:16:51;102046.06;;;27.51;51.96
81480;BME280;70893;52.500;5.456;2023-07-09T07:19:17;102051.06;;;28.01;51.06
81480;BME280;70893;52.500;5.456;2023-07-09T07:21:42;102045.72;;;28.88;47.45
81480;BME280;70893;52.500;5.456;2023-07-09T07:24:08;102035.41;;;29.20;46.77
81480;BME280;70893;52.500;5.456;2023-07-09T07:26:33;102043.94;;;28.16;48.84
81480;BME280;70893;52.500;5.456;2023-07-09T07:28:58;102047.72;;;28.56;49.79
81480;BME280;70893;52.500;5.456;2023-07-09T07:31:24;102047.75;;;28.12;47.39
81480;BME280;70893;52.500;5.456;2023-07-09T07:33:50;102048.25;;;27.85;48.17
81480;BME280;70893;52.500;5.456;2023-07-09T07:36:16;102049.75;;;28.11;49.19
81480;BME280;70893;52.500;5.456;2023-07-09T07:38:41;102047.91;;;28.03;52.14
81480;BME280;70893;52.500;5.456;2023-07-09T07:41:07;102047.81;;;27.83;51.95
81480;BME280;70893;52.500;5.456;2023-07-09T07:43:32;102043.88;;;27.84;51.41
81480;BME280;70893;52.500;5.456;2023-07-09T07:45:57;102057.97;;;27.67;51.58
81480;BME280;70893;52.500;5.456;2023-07-09T07:48:23;102054.34;;;27.79;51.30
81480;BME280;70893;52.500;5.456;2023-07-09T07:50:48;102059.16;;;27.94;49.38
81480;BME280;70893;52.500;5.456;2023-07-09T07:53:15;102054.16;;;27.72;51.09
81480;BME280;70893;52.500;5.456;2023-07-09T07:55:41;102063.00;;;28.49;50.56
81480;BME280;70893;52.500;5.456;2023-07-09T07:58:10;102062.06;;;28.29;50.05
81480;BME280;70893;52.500;5.456;2023-07-09T08:00:36;102065.19;;;28.91;48.08
81480;BME280;70893;52.500;5.456;2023-07-09T08:03:01;102065.00;;;29.00;47.36
81480;BME280;70893;52.500;5.456;2023-07-09T08:05:27;102076.38;;;28.95;49.67
81480;BME280;70893;52.500;5.456;2023-07-09T08:07:52;102070.19;;;28.38;48.87
81480;BME280;70893;52.500;5.456;2023-07-09T08:10:18;102062.97;;;28.81;48.79
81480;BME280;70893;52.500;5.456;2023-07-09T08:12:43;102051.81;;;30.07;46.44
81480;BME280;70893;52.500;5.456;2023-07-09T08:15:09;102054.06;;;29.78;45.99
81480;BME280;70893;52.500;5.456;2023-07-09T08:17:34;102062.69;;;28.86;48.43
81480;BME280;70893;52.500;5.456;2023-07-09T08:20:00;102062.06;;;28.14;50.80
81480;BME280;70893;52.500;5.456;2023-07-09T08:22:26;102061.59;;;28.12;50.59
81480;BME280;70893;52.500;5.456;2023-07-09T08:24:51;102071.69;;;28.64;49.37
81480;BME280;70893;52.500;5.456;2023-07-09T08:27:18;102053.06;;;29.31;46.85
81480;BME280;70893;52.500;5.456;2023-07-09T08:29:43;102070.16;;;28.50;49.47
81480;BME280;70893;52.500;5.456;2023-07-09T08:32:10;102057.69;;;29.43;47.85
81480;BME280;70893;52.500;5.456;2023-07-09T08:34:37;102061.72;;;28.79;48.49
81480;BME280;70893;52.500;5.456;2023-07-09T08:37:03;102046.06;;;30.88;44.81
81480;BME280;70893;52.500;5.456;2023-07-09T08:39:29;102055.69;;;31.51;42.96
81480;BME280;70893;52.500;5.456;2023-07-09T08:42:07;102057.22;;;31.82;41.02
81480;BME280;70893;52.500;5.456;2023-07-09T08:47:43;102058.16;;;30.50;41.09
81480;BME280;70893;52.500;5.456;2023-07-09T08:50:14;102060.19;;;31.02;41.93
81480;BME280;70893;52.500;5.456;2023-07-09T08:52:42;102062.06;;;30.72;42.10
81480;BME280;70893;52.500;5.456;2023-07-09T08:55:20;102061.88;;;30.61;39.85
81480;BME280;70893;52.500;5.456;2023-07-09T08:58:15;102056.78;;;30.40;41.31
81480;BME280;70893;52.500;5.456;2023-07-09T09:05:49;102057.22;;;30.42;39.39
81480;BME280;70893;52.500;5.456;2023-07-09T09:10:47;102052.28;;;30.55;37.65
81480;BME280;70893;52.500;5.456;2023-07-09T09:13:16;102061.16;;;30.64;38.70
81480;BME280;70893;52.500;5.456;2023-07-09T09:15:46;102056.19;;;29.65;40.17
81480;BME280;70893;52.500;5.456;2023-07-09T09:18:22;102064.09;;;30.06;38.91
81480;BME280;70893;52.500;5.456;2023-07-09T09:20:58;102064.22;;;29.54;44.19
81480;BME280;70893;52.500;5.456;2023-07-09T09:23:36;102070.94;;;30.12;40.38
81480;BME280;70893;52.500;5.456;2023-07-09T09:26:07;102071.19;;;30.03;42.09
81480;BME280;70893;52.500;5.456;2023-07-09T09:28:35;102062.78;;;29.41;41.97
81480;BME280;70893;52.500;5.456;2023-07-09T09:31:01;102049.72;;;30.46;40.73
81480;BME280;70893;52.500;5.456;2023-07-09T09:33:37;102057.81;;;31.35;39.76
81480;BME280;70893;52.500;5.456;2023-07-09T09:36:05;102054.69;;;31.70;36.52
81480;BME280;70893;52.500;5.456;2023-07-09T09:38:35;102061.19;;;31.81;38.25
81480;BME280;70893;52.500;5.456;2023-07-09T09:41:01;102054.72;;;32.04;35.42
81480;BME280;70893;52.500;5.456;2023-07-09T09:43:32;102053.72;;;30.95;38.59
81480;BME280;70893;52.500;5.456;2023-07-09T09:45:58;102045.09;;;31.34;36.51
81480;BME280;70893;52.500;5.456;2023-07-09T09:48:31;102038.72;;;31.97;34.16
81480;BME280;70893;52.500;5.456;2023-07-09T09:50:57;102035.75;;;31.19;35.87
81480;BME280;70893;52.500;5.456;2023-07-09T09:53:27;102025.44;;;31.49;32.98
81480;BME280;70893;52.500;5.456;2023-07-09T09:55:55;102025.63;;;31.03;33.94
81480;BME280;70893;52.500;5.456;2023-07-09T09:58:25;102027.16;;;31.58;33.73
81480;BME280;70893;52.500;5.456;2023-07-09T10:00:54;102024.91;;;32.52;34.31
81480;BME280;70893;52.500;5.456;2023-07-09T10:03:20;102017.88;;;32.73;33.66
81480;BME280;70893;52.500;5.456;2023-07-09T10:05:52;102018.56;;;33.21;32.53
81480;BME280;70893;52.500;5.456;2023-07-09T10:11:18;102014.31;;;32.28;33.88
81480;BME280;70893;52.500;5.456;2023-07-09T10:13:44;102019.66;;;31.99;35.23
81480;BME280;70893;52.500;5.456;2023-07-09T10:16:30;102018.56;;;31.73;36.30
81480;BME280;70893;52.500;5.456;2023-07-09T10:19:24;102017.53;;;31.21;36.50
81480;BME280;70893;52.500;5.456;2023-07-09T10:22:00;102019.88;;;32.76;34.93
81480;BME280;70893;52.500;5.456;2023-07-09T10:27:13;102011.16;;;33.61;32.29
81480;BME280;70893;52.500;5.456;2023-07-09T10:40:37;101980.94;;;34.10;35.75
81480;BME280;70893;52.500;5.456;2023-07-09T10:43:05;101976.47;;;33.66;34.40
81480;BME280;70893;52.500;5.456;2023-07-09T10:45:42;101985.13;;;33.29;37.57
81480;BME280;70893;52.500;5.456;2023-07-09T10:51:00;101997.94;;;32.67;38.99
81480;BME280;70893;52.500;5.456;2023-07-09T10:55:55;102004.09;;;32.39;39.12
81480;BME280;70893;52.500;5.456;2023-07-09T10:58:35;102001.97;;;31.17;41.06
81480;BME280;70893;52.500;5.456;2023-07-09T11:01:03;102008.94;;;31.34;38.66
81480;BME280;70893;52.500;5.456;2023-07-09T11:03:43;102018.25;;;31.82;39.59
81480;BME280;70893;52.500;5.456;2023-07-09T11:06:32;102016.06;;;31.01;41.00
81480;BME280;70893;52.500;5.456;2023-07-09T11:09:00;102037.59;;;31.68;39.14
81480;BME280;70893;52.500;5.456;2023-07-09T11:11:40;102034.09;;;31.41;38.57
81480;BME280;70893;52.500;5.456;2023-07-09T11:14:36;102029.63;;;31.36;39.27
81480;BME280;70893;52.500;5.456;2023-07-09T11:17:04;102037.28;;;30.59;36.72
81480;BME280;70893;52.500;5.456;2023-07-09T11:19:31;102027.25;;;31.04;37.29
81480;BME280;70893;52.500;5.456;2023-07-09T11:24:49;102013.25;;;30.48;37.89
81480;BME280;70893;52.500;5.456;2023-07-09T11:27:24;101994.22;;;31.33;37.39
81480;BME280;70893;52.500;5.456;2023-07-09T11:30:25;101979.53;;;32.07;35.89
81480;BME280;70893;52.500;5.456;2023-07-09T11:32:59;101989.19;;;31.42;38.09
81480;BME280;70893;52.500;5.456;2023-07-09T11:35:28;101974.91;;;30.83;38.45
81480;BME280;70893;52.500;5.456;2023-07-09T11:37:55;101974.03;;;30.26;42.09
81480;BME280;70893;52.500;5.456;2023-07-09T11:40:22;101985.13;;;29.22;43.15
81480;BME280;70893;52.500;5.456;2023-07-09T11:45:20;101974.94;;;30.11;43.42
81480;BME280;70893;52.500;5.456;2023-07-09T11:48:14;101981.91;;;29.58;43.22
81480;BME280;70893;52.500;5.456;2023-07-09T11:50:45;101975.91;;;30.22;42.82
81480;BME280;70893;52.500;5.456;2023-07-09T11:53:34;101980.91;;;30.36;43.22
81480;BME280;70893;52.500;5.456;2023-07-09T11:56:01;101978.94;;;28.26;46.61
81480;BME280;70893;52.500;5.456;2023-07-09T11:58:27;101989.38;;;28.33;46.49
81480;BME280;70893;52.500;5.456;2023-07-09T12:00:57;101990.28;;;27.77;48.46
81480;BME280;70893;52.500;5.456;2023-07-09T12:05:59;102006.41;;;27.18;50.72
81480;BME280;70893;52.500;5.456;2023-07-09T12:08:34;102018.75;;;26.84;50.59
81480;BME280;70893;52.500;5.456;2023-07-09T12:11:00;102018.84;;;26.88;53.52
81480;BME280;70893;52.500;5.456;2023-07-09T12:13:26;102021.44;;;26.23;55.47
81480;BME280;70893;52.500;5.456;2023-07-09T12:15:51;102000.19;;;26.23;54.93
81480;BME280;70893;52.500;5.456;2023-07-09T12:18:16;101994.97;;;26.09;54.28
81480;BME280;70893;52.500;5.456;2023-07-09T12:20:51;101983.75;;;27.41;50.65
81480;BME280;70893;52.500;5.456;2023-07-09T12:23:27;101984.19;;;27.99;48.85
81480;BME280;70893;52.500;5.456;2023-07-09T12:25:54;101974.63;;;28.60;47.87
81480;BME280;70893;52.500;5.456;2023-07-09T12:28:21;101974.03;;;28.86;45.01
81480;BME280;70893;52.500;5.456;2023-07-09T12:30:51;101970.84;;;29.81;46.19
81480;BME280;70893;52.500;5.456;2023-07-09T12:33:19;101959.66;;;29.55;44.98
81480;BME280;70893;52.500;5.456;2023-07-09T12:35:46;101957.84;;;30.09;42.96
81480;BME280;70893;52.500;5.456;2023-07-09T12:38:38;101955.03;;;31.12;40.25
81480;BME280;70893;52.500;5.456;2023-07-09T12:41:05;101956.94;;;30.01;41.55
81480;BME280;70893;52.500;5.456;2023-07-09T12:43:34;101950.59;;;29.38;43.15
81480;BME280;70893;52.500;5.456;2023-07-09T12:45:59;101958.56;;;29.21;47.68
81480;BME280;70893;52.500;5.456;2023-07-09T12:48:27;101956.72;;;29.67;47.26
81480;BME280;70893;52.500;5.456;2023-07-09T12:50:57;101969.00;;;30.12;43.88
81480;BME280;70893;52.500;5.456;2023-07-09T12:53:25;101979.78;;;28.78;45.71
81480;BME280;70893;52.500;5.456;2023-07-09T12:55:58;102002.16;;;27.49;52.05
81480;BME280;70893;52.500;5.456;2023-07-09T12:58:28;101997.91;;;27.39;53.80
81480;BME280;70893;52.500;5.456;2023-07-09T13:00:55;101990.31;;;27.64;50.00
81480;BME280;70893;52.500;5.456;2023-07-09T13:03:26;101986.47;;;27.53;49.17
81480;BME280;70893;52.500;5.456;2023-07-09T13:05:55;101986.09;;;27.14;50.45
81480;BME280;70893;52.500;5.456;2023-07-09T13:08:20;101990.75;;;26.98;52.38
81480;BME280;70893;52.500;5.456;2023-07-09T13:10:46;101995.16;;;27.39;51.70
81480;BME280;70893;52.500;5.456;2023-07-09T13:13:16;102000.94;;;27.62;51.88
81480;BME280;70893;52.500;5.456;2023-07-09T13:15:52;102003.38;;;27.80;51.76
81480;BME280;70893;52.500;5.456;2023-07-09T13:18:22;102025.94;;;27.66;52.60
81480;BME280;70893;52.500;5.456;2023-07-09T13:20:47;102030.47;;;27.06;52.98
81480;BME280;70893;52.500;5.456;2023-07-09T13:23:22;102020.13;;;26.78;53.55
81480;BME280;70893;52.500;5.456;2023-07-09T13:25:49;102035.63;;;26.46;54.76
81480;BME280;70893;52.500;5.456;2023-07-09T13:30:55;102051.25;;;26.29;55.32
81480;BME280;70893;52.500;5.456;2023-07-09T13:33:21;102056.53;;;25.68;56.76
81480;BME280;70893;52.500;5.456;2023-07-09T13:35:47;102050.25;;;25.80;57.51
81480;BME280;70893;52.500;5.456;2023-07-09T13:38:17;102051.41;;;25.79;56.77
81480;BME280;70893;52.500;5.456;2023-07-09T13:40:44;102035.63;;;25.88;57.62